To NAV CANADA Home Page Login to a new session Search on AWWS site Feedback and Comments Disclaimer Vers la page française équivalente Tips FAQ What's new on the site To the Forecasts and Observations / NOTAM section To "File a Flight Plan" website Publications and other links Update of the User's profile FIC Telephone Numbers My Weather Data Folder Route Weather Data Regional Weather Data Local Weather Data To the Forecasts and Observations / NOTAM section
Request Generated 04/21/2014 at 07:17:12 UTC . Weather information available at that time is displayed.

METAR/TAF

WINNIPEG/JAMES ARMSTRONG RICHARDSON INTL/MB    

METAR CYWG 210700Z 32008KT 15SM SKC 01/M00 A2987 RMK SLP123=
METAR CYWG 210600Z 35011G18KT 15SM SKC 02/00 A2985 RMK SLP116=
METAR CYWG 210500Z 34012KT 15SM FEW030 FEW170 02/00 A2984 RMK SC1AC1
SLP113=

TAF CYWG 210538Z 2106/2206 34012KT P6SM FEW030 SCT170 TEMPO 2106/2109
BKN020
FM210900 33012KT P6SM OVC015 TEMPO 2109/2116 P6SM -RASN OVC007
FM211600 33012G22KT P6SM SCT030 TEMPO 2116/2120 BKN020
FM212000 31012KT P6SM FEW030 BKN060 TEMPO 2120/2206 P6SM -SHRA
BKN030
RMK NXT FCST BY 211200Z=
Your time UTC time
Weather data provided by Environment Canada and NAV CANADA